createdAt,value
2024-03-10T00:02:00.052Z,23.70
2024-03-10T00:04:30.078Z,18.30
2024-03-10T00:06:59.913Z,19.70
2024-03-10T00:09:29.027Z,21.10
2024-03-10T00:11:57.439Z,19.20
2024-03-10T00:14:25.824Z,18.60
2024-03-10T00:16:54.037Z,19.20
2024-03-10T00:19:22.504Z,17.90
2024-03-10T00:21:50.692Z,20.50
2024-03-10T00:24:21.328Z,20.30
2024-03-10T00:26:50.915Z,17.60
2024-03-10T00:29:19.116Z,23.00
2024-03-10T00:31:47.317Z,20.20
2024-03-10T00:34:15.668Z,18.50
2024-03-10T00:36:43.765Z,19.10
2024-03-10T00:39:11.961Z,20.90
2024-03-10T00:41:41.074Z,19.90
2024-03-10T00:44:09.290Z,20.30
2024-03-10T00:46:37.546Z,21.80
2024-03-10T00:49:05.805Z,16.90
2024-03-10T00:51:36.340Z,22.40
2024-03-10T00:54:05.002Z,20.80
2024-03-10T00:56:33.197Z,23.00
2024-03-10T00:59:01.397Z,18.80
2024-03-10T01:01:30.299Z,23.90
2024-03-10T01:03:58.408Z,19.90
2024-03-10T01:06:26.812Z,23.40
2024-03-10T01:08:54.912Z,17.80
2024-03-10T01:11:23.079Z,17.80
2024-03-10T01:13:51.915Z,17.70
2024-03-10T01:16:20.068Z,19.70
2024-03-10T01:18:48.493Z,20.40
2024-03-10T01:21:16.575Z,17.40
2024-03-10T01:23:44.605Z,18.60
2024-03-10T01:26:12.821Z,17.40
2024-03-10T01:28:41.104Z,24.70
2024-03-10T01:31:10.855Z,22.20
2024-03-10T01:33:39.128Z,19.10
2024-03-10T01:36:08.102Z,19.40
2024-03-10T01:38:36.197Z,20.30
2024-03-10T01:41:04.560Z,19.90
2024-03-10T01:43:32.795Z,20.00
2024-03-10T01:46:08.976Z,23.80
2024-03-10T01:48:41.683Z,20.00
2024-03-10T01:51:10.285Z,17.90
2024-03-10T01:53:38.595Z,18.40
2024-03-10T01:56:08.396Z,21.00
2024-03-10T01:58:36.751Z,17.90
2024-03-10T02:01:05.038Z,20.40
2024-03-10T02:03:33.541Z,22.40
2024-03-10T02:06:01.727Z,24.70
2024-03-10T02:08:29.973Z,22.70
2024-03-10T02:10:58.240Z,19.50
2024-03-10T02:13:26.582Z,20.60
2024-03-10T02:16:04.842Z,19.80
2024-03-10T02:18:35.668Z,20.90
2024-03-10T02:21:04.119Z,19.80
2024-03-10T02:23:36.310Z,21.00
2024-03-10T02:26:05.082Z,20.60
2024-03-10T02:28:36.939Z,20.00
2024-03-10T02:31:25.049Z,20.10
2024-03-10T02:34:11.802Z,18.40
2024-03-10T02:36:58.913Z,19.60
2024-03-10T02:39:45.549Z,19.90
2024-03-10T02:42:32.187Z,19.80
2024-03-10T02:45:18.967Z,18.30
2024-03-10T02:47:47.422Z,20.60
2024-03-10T02:50:15.621Z,19.90
2024-03-10T02:52:43.690Z,20.80
2024-03-10T02:55:13.072Z,21.00
2024-03-10T02:57:41.275Z,20.60
2024-03-10T03:00:14.023Z,19.50
2024-03-10T03:02:42.062Z,19.50
2024-03-10T03:05:10.345Z,20.10
2024-03-10T03:07:38.487Z,19.30
2024-03-10T03:10:07.394Z,18.40
2024-03-10T03:12:37.018Z,18.00
2024-03-10T03:15:05.916Z,17.90
2024-03-10T03:17:34.077Z,19.40
2024-03-10T03:20:02.385Z,18.90
2024-03-10T03:22:30.693Z,20.40
2024-03-10T03:24:58.848Z,18.70
2024-03-10T03:27:26.877Z,18.20
2024-03-10T03:29:55.993Z,18.80
2024-03-10T03:32:24.087Z,21.70
2024-03-10T03:34:52.153Z,19.70
2024-03-10T03:37:20.241Z,19.90
2024-03-10T03:39:48.438Z,21.10
2024-03-10T03:42:16.786Z,19.30
2024-03-10T03:44:45.576Z,19.60
2024-03-10T03:47:13.735Z,21.80
2024-03-10T03:49:41.859Z,27.90
2024-03-10T03:52:10.026Z,19.80
2024-03-10T03:54:40.725Z,18.60
2024-03-10T03:57:08.813Z,18.50
2024-03-10T03:59:40.309Z,20.80
2024-03-10T04:02:08.718Z,19.70
2024-03-10T04:04:36.943Z,19.10
2024-03-10T04:07:05.384Z,16.50
2024-03-10T04:09:33.492Z,17.90
2024-03-10T04:12:01.943Z,18.30
2024-03-10T04:14:30.148Z,19.20
2024-03-10T04:16:58.712Z,19.20
2024-03-10T04:19:26.779Z,18.10
2024-03-10T04:21:55.712Z,17.80
2024-03-10T04:24:24.098Z,20.00
2024-03-10T04:26:52.276Z,19.50
2024-03-10T04:29:20.928Z,18.30
2024-03-10T04:31:49.662Z,17.50
2024-03-10T04:34:17.805Z,18.10
2024-03-10T04:36:45.914Z,19.60
2024-03-10T04:39:14.103Z,18.40
2024-03-10T04:41:42.164Z,17.50
2024-03-10T04:44:15.973Z,20.10
2024-03-10T04:46:44.173Z,18.50
2024-03-10T04:49:13.030Z,22.20
2024-03-10T04:51:42.285Z,19.20
2024-03-10T04:54:10.949Z,18.40
2024-03-10T04:56:39.160Z,20.70
2024-03-10T04:59:07.539Z,20.40
2024-03-10T05:01:35.753Z,18.30
2024-03-10T05:04:03.952Z,20.30
2024-03-10T05:06:32.022Z,18.10
2024-03-10T05:09:00.119Z,20.10
2024-03-10T05:11:28.405Z,18.70
2024-03-10T05:13:56.897Z,19.20
2024-03-10T05:16:25.051Z,17.10
2024-03-10T05:18:55.005Z,18.50
2024-03-10T05:21:26.239Z,18.80
2024-03-10T05:23:57.398Z,17.50
2024-03-10T05:26:25.902Z,17.30
2024-03-10T05:28:54.139Z,16.80
2024-03-10T05:31:27.532Z,16.90
2024-03-10T05:33:58.900Z,18.00
2024-03-10T05:36:27.971Z,18.00
2024-03-10T05:38:56.559Z,17.40
2024-03-10T05:41:24.818Z,18.60
2024-03-10T05:43:53.122Z,21.90
2024-03-10T05:46:21.250Z,21.30
2024-03-10T05:48:49.452Z,19.80
2024-03-10T05:51:17.640Z,20.30
2024-03-10T05:53:46.954Z,20.40
2024-03-10T05:56:15.150Z,18.90
2024-03-10T05:58:44.188Z,21.10
2024-03-10T06:01:13.437Z,20.20
2024-03-10T06:03:41.541Z,21.00
2024-03-10T06:06:10.011Z,18.10
2024-03-10T06:08:38.140Z,20.30
2024-03-10T06:11:06.286Z,20.10
2024-03-10T06:13:34.607Z,19.90
2024-03-10T06:16:04.046Z,18.60
2024-03-10T06:18:54.770Z,17.80
2024-03-10T06:21:46.401Z,17.90
2024-03-10T06:24:33.434Z,19.60
2024-03-10T06:27:02.147Z,17.80
2024-03-10T06:29:30.573Z,20.70
2024-03-10T06:32:00.241Z,16.80
2024-03-10T06:34:28.611Z,20.10
2024-03-10T06:36:56.814Z,19.80
2024-03-10T06:39:25.823Z,22.70
2024-03-10T06:41:53.966Z,20.90
2024-03-10T06:44:23.273Z,19.10
2024-03-10T06:46:51.869Z,22.00
2024-03-10T06:49:20.003Z,20.20
2024-03-10T06:51:48.655Z,20.20
2024-03-10T06:54:16.728Z,19.60
2024-03-10T06:56:44.883Z,20.30
2024-03-10T06:59:14.323Z,20.90
2024-03-10T07:01:46.147Z,18.60
2024-03-10T07:04:17.535Z,20.70
2024-03-10T07:06:47.453Z,21.20
2024-03-10T07:09:16.978Z,22.30
2024-03-10T07:11:45.412Z,20.30
2024-03-10T07:14:15.680Z,20.80
2024-03-10T07:16:50.579Z,22.10
2024-03-10T07:19:18.745Z,20.80
2024-03-10T07:21:46.833Z,19.80
2024-03-10T07:24:14.990Z,20.50
2024-03-10T07:26:43.329Z,19.50
2024-03-10T07:29:12.342Z,19.80
2024-03-10T07:31:40.397Z,20.00
2024-03-10T07:34:08.720Z,18.70
2024-03-10T07:36:37.208Z,17.90
2024-03-10T07:39:08.885Z,21.10
2024-03-10T07:41:37.182Z,17.70
2024-03-10T07:44:05.540Z,20.40
2024-03-10T07:46:33.880Z,16.60
2024-03-10T07:49:03.794Z,17.70
2024-03-10T07:51:32.449Z,16.90
2024-03-10T07:54:01.893Z,17.00
2024-03-10T07:56:32.418Z,15.60
2024-03-10T07:59:02.134Z,17.00
2024-03-10T08:01:30.625Z,16.00
2024-03-10T08:03:58.720Z,14.40
2024-03-10T08:06:27.170Z,13.30
2024-03-10T08:08:55.306Z,15.70
2024-03-10T08:11:24.025Z,19.30
2024-03-10T08:13:52.485Z,18.80
2024-03-10T08:16:21.216Z,13.70
2024-03-10T08:18:51.158Z,16.10
2024-03-10T08:21:24.170Z,17.80
2024-03-10T08:23:52.298Z,14.10
2024-03-10T08:26:20.736Z,15.60
2024-03-10T08:28:48.809Z,13.70
2024-03-10T08:31:17.858Z,13.30
2024-03-10T08:33:46.055Z,14.80
2024-03-10T08:36:14.191Z,19.40
2024-03-10T08:38:42.416Z,18.50
2024-03-10T08:41:10.823Z,18.10
2024-03-10T08:43:39.088Z,18.80
2024-03-10T08:46:08.097Z,15.20
2024-03-10T08:48:37.029Z,17.10
2024-03-10T08:51:07.279Z,14.40
2024-03-10T08:53:35.904Z,19.10
2024-03-10T08:56:06.123Z,15.00
2024-03-10T08:58:34.667Z,12.30
2024-03-10T09:01:05.983Z,14.30
2024-03-10T09:03:34.284Z,14.80
2024-03-10T09:06:02.505Z,11.90
2024-03-10T09:08:30.922Z,15.40
2024-03-10T09:11:04.541Z,14.50
2024-03-10T09:13:34.699Z,12.50
2024-03-10T09:16:02.882Z,13.50
2024-03-10T09:18:31.129Z,14.20
2024-03-10T09:20:59.385Z,12.40
2024-03-10T09:23:29.205Z,7.40
2024-03-10T09:25:59.256Z,9.40
2024-03-10T09:28:27.502Z,6.60
2024-03-10T09:30:58.586Z,8.60
2024-03-10T09:33:27.149Z,8.80
2024-03-10T09:35:59.334Z,8.40
2024-03-10T09:38:27.605Z,8.50
2024-03-10T09:40:57.240Z,9.00
2024-03-10T09:43:30.521Z,9.40
2024-03-10T09:45:59.152Z,10.00
2024-03-10T09:48:27.327Z,8.60
2024-03-10T09:50:55.626Z,7.80
2024-03-10T09:53:25.095Z,8.00
2024-03-10T09:55:54.245Z,8.80
2024-03-10T09:58:40.322Z,9.30
2024-03-10T10:01:13.669Z,8.80
2024-03-10T10:03:46.423Z,9.20
2024-03-10T10:06:15.141Z,10.10
2024-03-10T10:08:43.701Z,10.00
2024-03-10T10:11:14.690Z,8.90
2024-03-10T10:13:43.839Z,9.00
2024-03-10T10:16:12.470Z,9.00
2024-03-10T10:18:51.144Z,12.10
2024-03-10T10:21:28.317Z,8.90
2024-03-10T10:23:59.064Z,11.90
2024-03-10T10:29:11.098Z,8.80
2024-03-10T10:31:39.864Z,9.50
2024-03-10T10:34:08.555Z,8.80
2024-03-10T10:36:36.908Z,8.30
2024-03-10T10:39:10.224Z,8.00
2024-03-10T10:41:39.462Z,8.40
2024-03-10T10:44:08.565Z,9.00
2024-03-10T10:46:37.815Z,8.20
2024-03-10T10:49:06.325Z,8.90
2024-03-10T10:51:37.407Z,8.00
2024-03-10T10:54:10.720Z,7.50
2024-03-10T10:56:39.728Z,8.90
2024-03-10T10:59:12.035Z,9.40
2024-03-10T11:01:41.805Z,10.00
2024-03-10T11:06:42.477Z,9.60
2024-03-10T11:09:16.251Z,12.90
2024-03-10T11:11:46.761Z,12.30
2024-03-10T11:14:17.517Z,10.50
2024-03-10T11:16:46.046Z,10.00
2024-03-10T11:19:22.485Z,8.90
2024-03-10T11:24:23.302Z,9.30
2024-03-10T11:27:13.162Z,8.30
2024-03-10T11:29:43.077Z,8.80
2024-03-10T11:32:33.076Z,9.80
2024-03-10T11:35:08.525Z,10.00
2024-03-10T11:37:38.137Z,9.90
2024-03-10T11:40:16.896Z,10.50
2024-03-10T11:42:46.523Z,8.10
2024-03-10T11:45:14.812Z,7.90
2024-03-10T11:47:45.500Z,8.40
2024-03-10T11:50:13.813Z,9.20
2024-03-10T11:52:41.883Z,9.00
2024-03-10T11:55:14.788Z,7.80
2024-03-10T11:57:42.963Z,8.40
2024-03-10T12:00:24.682Z,7.40
2024-03-10T12:02:54.720Z,9.50
2024-03-10T12:05:24.142Z,9.20
2024-03-10T12:07:56.083Z,9.20
2024-03-10T12:10:29.641Z,10.10
2024-03-10T12:12:59.134Z,8.50
2024-03-10T12:15:28.020Z,9.90
2024-03-10T12:17:56.531Z,11.50
2024-03-10T12:20:25.360Z,9.50
2024-03-10T12:22:54.440Z,10.60
2024-03-10T12:25:22.854Z,8.60
2024-03-10T12:27:51.367Z,7.30
2024-03-10T12:30:22.191Z,7.50
2024-03-10T12:32:53.848Z,8.50
2024-03-10T12:35:24.877Z,6.50
2024-03-10T12:37:53.603Z,7.70
2024-03-10T12:40:23.208Z,7.90
2024-03-10T12:42:52.948Z,7.00
2024-03-10T12:45:22.200Z,7.50
2024-03-10T12:47:54.995Z,7.10
2024-03-10T12:50:23.491Z,7.50
2024-03-10T12:52:51.877Z,6.80
2024-03-10T12:55:20.213Z,6.20
2024-03-10T12:57:48.325Z,7.00
2024-03-10T13:00:25.367Z,6.90
2024-03-10T13:02:56.354Z,5.60
2024-03-10T13:05:25.234Z,6.50
2024-03-10T13:07:53.317Z,7.70
2024-03-10T13:10:21.860Z,7.00
2024-03-10T13:12:50.283Z,6.90
2024-03-10T13:15:18.710Z,6.90
2024-03-10T13:17:47.147Z,8.60
2024-03-10T13:20:18.279Z,9.60
2024-03-10T13:22:47.104Z,8.20
2024-03-10T13:25:15.898Z,10.60
2024-03-10T13:27:44.022Z,9.10
2024-03-10T13:30:15.886Z,8.90
2024-03-10T13:32:44.259Z,8.20
2024-03-10T13:35:15.164Z,9.10
2024-03-10T13:37:43.440Z,9.40
2024-03-10T13:40:12.962Z,8.20
2024-03-10T13:42:42.440Z,9.80
2024-03-10T13:45:19.652Z,9.10
2024-03-10T13:47:51.685Z,9.20
2024-03-10T13:50:25.425Z,10.60
2024-03-10T13:52:53.675Z,8.60
2024-03-10T13:55:22.065Z,8.50
2024-03-10T13:57:52.921Z,9.70
2024-03-10T14:00:23.111Z,8.80
2024-03-10T14:02:51.224Z,9.70
2024-03-10T14:05:20.617Z,9.00
2024-03-10T14:07:49.152Z,9.20
2024-03-10T14:10:20.656Z,10.10
2024-03-10T14:12:48.832Z,8.70
2024-03-10T14:15:17.258Z,9.20
2024-03-10T14:17:46.242Z,8.40
2024-03-10T14:20:16.559Z,9.30
2024-03-10T14:22:51.845Z,9.00
2024-03-10T14:25:20.211Z,9.30
2024-03-10T14:27:52.735Z,10.00
2024-03-10T14:30:24.077Z,9.00
2024-03-10T14:32:54.944Z,7.60
2024-03-10T14:35:25.974Z,10.00
2024-03-10T14:37:56.292Z,10.40
2024-03-10T14:40:24.610Z,11.60
2024-03-10T14:42:55.304Z,8.90
2024-03-10T14:45:24.677Z,9.20
2024-03-10T14:47:53.713Z,8.30
2024-03-10T14:50:26.429Z,8.30
2024-03-10T14:52:56.597Z,6.70
2024-03-10T14:55:25.781Z,7.20
2024-03-10T14:57:54.363Z,7.90
2024-03-10T15:00:36.185Z,7.60
2024-03-10T15:05:37.617Z,7.40
2024-03-10T15:08:06.939Z,7.60
2024-03-10T15:10:36.673Z,7.30
2024-03-10T15:13:10.136Z,7.80
2024-03-10T15:15:40.132Z,6.80
2024-03-10T15:18:10.661Z,7.00
2024-03-10T15:20:44.112Z,7.10
2024-03-10T15:23:13.275Z,8.30
2024-03-10T15:25:42.234Z,8.00
2024-03-10T15:28:11.237Z,7.70
2024-03-10T15:30:42.546Z,6.90
2024-03-10T15:33:12.165Z,8.20
2024-03-10T15:35:43.120Z,8.10
2024-03-10T15:38:11.783Z,7.50
2024-03-10T15:40:40.131Z,9.50
2024-03-10T15:43:10.770Z,7.50
2024-03-10T15:45:43.927Z,7.70
2024-03-10T15:48:13.779Z,8.40
2024-03-10T15:50:44.012Z,8.50
2024-03-10T15:53:12.750Z,8.30
2024-03-10T15:55:41.244Z,7.60
2024-03-10T15:58:11.389Z,8.80
2024-03-10T16:00:39.945Z,7.70
2024-03-10T16:03:17.376Z,7.20
2024-03-10T16:05:56.683Z,6.30
2024-03-10T16:08:26.712Z,6.30
2024-03-10T16:10:55.016Z,6.80
2024-03-10T16:13:26.711Z,6.60
2024-03-10T16:15:55.641Z,7.10
2024-03-10T16:18:24.568Z,7.10
2024-03-10T16:20:52.985Z,7.00
2024-03-10T16:23:22.926Z,8.40
2024-03-10T16:25:51.200Z,6.80
2024-03-10T16:28:19.489Z,7.30
2024-03-10T16:30:47.623Z,8.20
2024-03-10T16:33:15.839Z,6.90
2024-03-10T16:35:44.075Z,7.40
2024-03-10T16:38:12.287Z,6.60
2024-03-10T16:40:40.479Z,5.60
2024-03-10T16:43:08.693Z,6.40
2024-03-10T16:45:36.902Z,7.10
2024-03-10T16:48:05.448Z,6.00
2024-03-10T16:50:34.788Z,6.40
2024-03-10T16:53:07.543Z,8.50
2024-03-10T16:55:41.502Z,5.90
2024-03-10T16:58:10.631Z,5.80
2024-03-10T17:00:39.661Z,6.50
2024-03-10T17:03:12.895Z,6.80
2024-03-10T17:05:41.291Z,5.80
2024-03-10T17:08:12.675Z,6.70
2024-03-10T17:10:41.112Z,6.20
2024-03-10T17:13:09.896Z,7.70
2024-03-10T17:15:43.466Z,5.60
2024-03-10T17:18:14.210Z,6.50
2024-03-10T17:20:42.741Z,6.10
2024-03-10T17:23:13.868Z,5.90
2024-03-10T17:25:42.261Z,6.50
2024-03-10T17:28:10.607Z,6.40
2024-03-10T17:30:38.879Z,5.40
2024-03-10T17:33:07.142Z,6.20
2024-03-10T17:35:35.697Z,6.80
2024-03-10T17:38:05.515Z,6.40
2024-03-10T17:40:34.046Z,7.10
2024-03-10T17:43:02.220Z,7.00
2024-03-10T17:45:30.392Z,7.80
2024-03-10T17:48:00.585Z,7.40
2024-03-10T17:50:31.005Z,6.90
2024-03-10T17:52:59.220Z,7.80
2024-03-10T17:55:27.507Z,7.30
2024-03-10T17:57:55.668Z,7.70
2024-03-10T18:00:24.172Z,7.90
2024-03-10T18:02:52.617Z,6.10
2024-03-10T18:05:21.495Z,6.70
2024-03-10T18:07:52.906Z,5.60
2024-03-10T18:10:22.935Z,5.20
2024-03-10T18:12:52.470Z,7.80
2024-03-10T18:15:21.920Z,5.90
2024-03-10T18:17:50.530Z,6.60
2024-03-10T18:20:21.269Z,6.40
2024-03-10T18:22:49.836Z,7.30
2024-03-10T18:25:18.174Z,7.10
2024-03-10T18:27:46.537Z,7.30
2024-03-10T18:30:15.801Z,7.20
2024-03-10T18:32:44.360Z,10.10
2024-03-10T18:35:14.267Z,8.90
2024-03-10T18:37:43.481Z,8.70
2024-03-10T18:40:12.257Z,8.80
2024-03-10T18:42:41.759Z,9.60
2024-03-10T18:45:10.700Z,8.20
2024-03-10T18:47:38.997Z,8.40
2024-03-10T18:50:11.640Z,8.40
2024-03-10T18:52:43.684Z,9.40
2024-03-10T18:55:14.657Z,7.80
2024-03-10T18:57:42.976Z,9.10
2024-03-10T19:00:13.352Z,9.40
2024-03-10T19:02:42.809Z,8.80
2024-03-10T19:05:12.631Z,10.00
2024-03-10T19:07:42.342Z,10.70
2024-03-10T19:10:11.390Z,9.70
2024-03-10T19:12:46.326Z,10.20
2024-03-10T19:15:15.469Z,9.80
2024-03-10T19:17:44.647Z,9.00
2024-03-10T19:20:19.374Z,11.10
2024-03-10T19:22:55.990Z,9.10
2024-03-10T19:25:25.004Z,9.20
2024-03-10T19:27:53.366Z,11.50
2024-03-10T19:30:21.670Z,9.60
2024-03-10T19:32:50.878Z,10.80
2024-03-10T19:35:20.653Z,9.40
2024-03-10T19:37:49.487Z,8.40
2024-03-10T19:40:20.662Z,9.20
2024-03-10T19:42:50.027Z,10.20
2024-03-10T19:45:20.956Z,10.20
2024-03-10T19:47:49.486Z,10.10
2024-03-10T19:50:17.981Z,11.40
2024-03-10T19:52:49.393Z,10.70
2024-03-10T19:55:17.609Z,10.00
2024-03-10T19:57:45.908Z,10.40
2024-03-10T20:00:15.940Z,10.80
2024-03-10T20:02:45.444Z,8.60
2024-03-10T20:05:16.931Z,9.00
2024-03-10T20:07:49.605Z,11.50
2024-03-10T20:10:21.142Z,10.50
2024-03-10T20:12:53.011Z,10.70
2024-03-10T20:15:21.269Z,10.40
2024-03-10T20:17:50.919Z,9.60
2024-03-10T20:20:26.590Z,10.20
2024-03-10T20:23:01.898Z,11.10
2024-03-10T20:25:32.089Z,12.10
2024-03-10T20:28:00.802Z,8.80
2024-03-10T20:30:32.255Z,8.40
2024-03-10T20:33:00.608Z,8.20
2024-03-10T20:35:29.002Z,9.10
2024-03-10T20:37:57.139Z,8.40
2024-03-10T20:40:25.306Z,8.00
2024-03-10T20:42:53.361Z,9.10
2024-03-10T20:45:21.575Z,11.60
2024-03-10T20:47:50.593Z,8.80
2024-03-10T20:50:24.520Z,10.20
2024-03-10T20:52:53.982Z,9.80
2024-03-10T20:55:22.751Z,11.70
2024-03-10T20:57:51.119Z,10.20
2024-03-10T21:00:23.782Z,10.30
2024-03-10T21:02:52.733Z,11.30
2024-03-10T21:05:22.795Z,11.00
2024-03-10T21:07:53.408Z,12.50
2024-03-10T21:10:23.450Z,10.30
2024-03-10T21:12:52.517Z,11.70
2024-03-10T21:15:23.808Z,11.60
2024-03-10T21:17:53.535Z,11.50
2024-03-10T21:20:24.184Z,12.20
2024-03-10T21:22:53.418Z,10.20
2024-03-10T21:25:24.251Z,9.20
2024-03-10T21:30:20.600Z,10.70
2024-03-10T21:32:49.026Z,12.90
2024-03-10T21:35:19.335Z,10.70
2024-03-10T21:37:48.883Z,6.60
2024-03-10T21:40:17.757Z,7.40
2024-03-10T21:42:46.000Z,6.20
2024-03-10T21:45:14.352Z,10.50
2024-03-10T21:47:42.952Z,9.50
2024-03-10T21:50:11.897Z,8.30
2024-03-10T21:52:40.410Z,8.40
2024-03-10T21:55:08.931Z,8.10
2024-03-10T21:57:37.121Z,7.50
2024-03-10T22:00:15.708Z,7.50
2024-03-10T22:02:45.005Z,7.10
2024-03-10T22:05:13.655Z,6.80
2024-03-10T22:07:43.031Z,7.90
2024-03-10T22:10:11.394Z,6.90
2024-03-10T22:12:39.575Z,7.60
2024-03-10T22:15:15.608Z,7.00
2024-03-10T22:17:45.011Z,8.00
2024-03-10T22:20:15.426Z,6.90
2024-03-10T22:22:44.562Z,8.00
2024-03-10T22:25:15.296Z,10.70
2024-03-10T22:27:44.717Z,8.70
2024-03-10T22:30:16.397Z,9.60
2024-03-10T22:32:48.549Z,10.00
2024-03-10T22:35:17.185Z,8.90
2024-03-10T22:37:49.488Z,8.60
2024-03-10T22:40:20.242Z,8.30
2024-03-10T22:42:50.674Z,9.20
2024-03-10T22:45:29.180Z,8.40
2024-03-10T22:48:00.900Z,8.20
2024-03-10T22:50:30.170Z,11.20
2024-03-10T22:53:01.774Z,10.00
2024-03-10T22:55:30.493Z,9.20
2024-03-10T22:57:58.772Z,9.80
2024-03-10T23:00:26.977Z,7.80
2024-03-10T23:02:56.906Z,8.30
2024-03-10T23:05:26.999Z,9.70
2024-03-10T23:08:05.610Z,10.00
2024-03-10T23:10:36.077Z,11.10
2024-03-10T23:13:05.381Z,9.40
2024-03-10T23:15:34.446Z,9.00
2024-03-10T23:18:02.822Z,10.40
2024-03-10T23:20:31.735Z,8.80
2024-03-10T23:23:01.385Z,9.00
2024-03-10T23:25:31.565Z,10.70
2024-03-10T23:27:59.980Z,8.30
2024-03-10T23:30:28.283Z,10.30
2024-03-10T23:32:57.147Z,9.40
2024-03-10T23:35:26.933Z,9.90
2024-03-10T23:37:55.239Z,8.30
2024-03-10T23:40:26.331Z,9.10
2024-03-10T23:42:56.699Z,9.40
2024-03-10T23:45:24.995Z,9.70
2024-03-10T23:47:53.808Z,8.50
2024-03-10T23:50:22.334Z,8.20
2024-03-10T23:52:53.920Z,8.20
2024-03-10T23:55:23.684Z,7.20
2024-03-10T23:57:54.211Z,8.00
